createdAt,value
2023-03-26T00:01:22.406Z,10.52
2023-03-26T00:03:51.588Z,11.18
2023-03-26T00:06:21.635Z,11.01
2023-03-26T00:08:50.875Z,11.85
2023-03-26T00:11:22.706Z,11.83
2023-03-26T00:13:51.604Z,11.82
2023-03-26T00:16:20.229Z,11.55
2023-03-26T00:18:47.962Z,11.56
2023-03-26T00:21:18.679Z,11.35
2023-03-26T00:23:46.981Z,11.82
2023-03-26T00:26:15.194Z,12.03
2023-03-26T00:28:44.346Z,12.30
2023-03-26T00:31:13.713Z,12.66
2023-03-26T00:33:41.973Z,12.85
2023-03-26T00:36:13.223Z,12.61
2023-03-26T00:38:41.784Z,12.02
2023-03-26T00:41:11.492Z,11.75
2023-03-26T00:43:39.004Z,10.75
2023-03-26T00:46:07.954Z,10.31
2023-03-26T00:48:44.389Z,10.72
2023-03-26T00:51:14.706Z,11.24
2023-03-26T00:53:43.009Z,11.79
2023-03-26T00:56:11.214Z,11.62
2023-03-26T00:58:39.693Z,11.94
2023-03-26T01:01:11.744Z,11.70
2023-03-26T01:03:40.081Z,11.95
2023-03-26T01:06:11.710Z,12.35
2023-03-26T01:08:42.853Z,11.79
2023-03-26T01:11:18.032Z,12.24
2023-03-26T01:13:49.978Z,11.99
2023-03-26T01:16:26.507Z,11.83
2023-03-26T01:18:55.112Z,11.76
2023-03-26T01:21:26.053Z,12.48
2023-03-26T01:23:59.936Z,12.14
2023-03-26T01:26:42.819Z,11.96
2023-03-26T01:29:21.078Z,11.33
2023-03-26T01:32:00.670Z,10.80
2023-03-26T01:34:43.506Z,10.56
2023-03-26T01:37:23.383Z,10.56
2023-03-26T01:39:57.482Z,10.53
2023-03-26T01:42:34.374Z,10.93
2023-03-26T01:45:11.268Z,11.97
2023-03-26T01:47:42.091Z,12.26
2023-03-26T01:50:10.205Z,12.40
2023-03-26T01:52:38.252Z,12.47
2023-03-26T01:55:09.717Z,11.82
2023-03-26T01:57:50.072Z,11.59
2023-03-26T02:00:26.425Z,10.90
2023-03-26T02:03:14.697Z,10.59
2023-03-26T02:05:52.661Z,11.44
2023-03-26T02:08:24.677Z,11.56
2023-03-26T02:10:59.417Z,10.99
2023-03-26T02:13:27.758Z,11.16
2023-03-26T02:15:57.220Z,12.10
2023-03-26T02:18:25.487Z,10.86
2023-03-26T02:20:53.068Z,10.88
2023-03-26T02:23:20.836Z,10.72
2023-03-26T02:25:48.423Z,9.84
2023-03-26T02:28:17.347Z,9.72
2023-03-26T02:30:44.883Z,9.74
2023-03-26T02:33:12.617Z,10.59
2023-03-26T02:35:40.281Z,10.38
2023-03-26T02:38:07.974Z,10.29
2023-03-26T02:40:35.497Z,10.50
2023-03-26T02:43:03.014Z,11.09
2023-03-26T02:45:31.999Z,11.27
2023-03-26T02:47:59.700Z,11.73
2023-03-26T02:50:27.268Z,11.64
2023-03-26T02:52:54.838Z,11.87
2023-03-26T02:55:22.379Z,12.13
2023-03-26T02:57:49.927Z,11.99
2023-03-26T03:00:17.707Z,11.71
2023-03-26T03:02:46.679Z,11.85
2023-03-26T03:05:14.652Z,11.49
2023-03-26T03:07:42.289Z,11.68
2023-03-26T03:10:10.794Z,11.78
2023-03-26T03:12:38.306Z,11.58
2023-03-26T03:15:06.811Z,11.40
2023-03-26T03:17:34.510Z,11.27
2023-03-26T03:20:03.941Z,11.31
2023-03-26T03:22:31.629Z,11.02
2023-03-26T03:24:59.197Z,11.09
2023-03-26T03:27:27.966Z,10.89
2023-03-26T03:29:55.559Z,10.98
2023-03-26T03:32:23.448Z,10.96
2023-03-26T03:34:51.597Z,11.00
2023-03-26T03:37:20.944Z,11.12
2023-03-26T03:39:48.662Z,10.96
2023-03-26T03:42:16.197Z,10.86
2023-03-26T03:44:44.094Z,10.75
2023-03-26T03:47:11.666Z,10.75
2023-03-26T03:49:39.229Z,10.76
2023-03-26T03:52:06.903Z,10.83
2023-03-26T03:54:35.814Z,11.06
2023-03-26T03:57:03.559Z,10.96
2023-03-26T03:59:31.401Z,10.90
2023-03-26T04:01:59.051Z,11.14
2023-03-26T04:04:26.670Z,10.94
2023-03-26T04:06:54.237Z,11.00
2023-03-26T04:09:21.768Z,11.28
2023-03-26T04:11:50.686Z,11.39
2023-03-26T04:14:18.255Z,11.26
2023-03-26T04:16:45.823Z,11.49
2023-03-26T04:19:13.332Z,11.64
2023-03-26T04:21:41.134Z,11.44
2023-03-26T04:24:09.511Z,11.69
2023-03-26T04:26:37.144Z,11.49
2023-03-26T04:29:08.450Z,11.51
2023-03-26T04:31:36.048Z,11.45
2023-03-26T04:34:09.014Z,11.40
2023-03-26T04:36:36.642Z,11.48
2023-03-26T04:39:04.320Z,11.54
2023-03-26T04:41:31.924Z,11.40
2023-03-26T04:43:59.488Z,11.18
2023-03-26T04:46:29.026Z,10.68
2023-03-26T04:48:56.594Z,10.72
2023-03-26T04:51:27.373Z,10.54
2023-03-26T04:53:58.001Z,10.23
2023-03-26T04:56:39.561Z,10.20
2023-03-26T04:59:13.579Z,10.13
2023-03-26T05:01:42.882Z,10.16
2023-03-26T05:04:10.898Z,10.20
2023-03-26T05:06:38.877Z,10.02
2023-03-26T05:09:06.420Z,9.93
2023-03-26T05:11:34.041Z,9.89
2023-03-26T05:14:01.584Z,9.88
2023-03-26T05:16:30.497Z,9.84
2023-03-26T05:18:59.679Z,9.87
2023-03-26T05:21:27.251Z,10.16
2023-03-26T05:23:54.951Z,10.18
2023-03-26T05:26:22.502Z,10.20
2023-03-26T05:28:50.305Z,10.23
2023-03-26T05:31:21.211Z,10.29
2023-03-26T05:33:49.587Z,10.01
2023-03-26T05:36:19.008Z,10.03
2023-03-26T05:38:46.625Z,9.64
2023-03-26T05:41:14.281Z,9.43
2023-03-26T05:43:41.971Z,10.16
2023-03-26T05:46:09.630Z,9.90
2023-03-26T05:48:37.834Z,9.41
2023-03-26T05:51:06.160Z,9.46
2023-03-26T05:53:35.343Z,9.93
2023-03-26T05:56:03.192Z,9.41
2023-03-26T05:58:35.047Z,9.39
2023-03-26T06:01:05.519Z,9.91
2023-03-26T06:03:34.076Z,10.06
2023-03-26T06:06:01.809Z,9.55
2023-03-26T06:08:29.745Z,9.62
2023-03-26T06:11:04.107Z,9.86
2023-03-26T06:13:31.650Z,9.79
2023-03-26T06:15:59.938Z,9.49
2023-03-26T06:18:27.601Z,9.75
2023-03-26T06:20:55.358Z,10.35
2023-03-26T06:23:23.214Z,10.42
2023-03-26T06:25:51.000Z,10.17
2023-03-26T06:28:19.972Z,9.39
2023-03-26T06:30:48.495Z,9.17
2023-03-26T06:33:16.109Z,9.64
2023-03-26T06:35:43.857Z,9.77
2023-03-26T06:38:11.924Z,9.67
2023-03-26T06:40:39.677Z,9.58
2023-03-26T06:43:09.976Z,9.51
2023-03-26T06:45:39.897Z,9.96
2023-03-26T06:48:07.694Z,9.67
2023-03-26T06:50:35.598Z,9.56
2023-03-26T06:53:03.141Z,10.17
2023-03-26T06:55:30.732Z,9.97
2023-03-26T06:57:58.276Z,9.66
2023-03-26T07:00:25.923Z,10.33
2023-03-26T07:02:54.941Z,11.16
2023-03-26T07:05:22.847Z,11.50
2023-03-26T07:07:50.659Z,11.63
2023-03-26T07:10:18.321Z,11.56
2023-03-26T07:12:46.067Z,11.55
2023-03-26T07:15:13.638Z,11.60
2023-03-26T07:17:41.295Z,11.63
2023-03-26T07:20:11.790Z,11.49
2023-03-26T07:22:40.070Z,11.20
2023-03-26T07:25:09.263Z,11.05
2023-03-26T07:27:52.590Z,10.84
2023-03-26T07:30:30.642Z,10.79
2023-03-26T07:33:03.820Z,10.40
2023-03-26T07:35:41.578Z,10.61
2023-03-26T07:38:29.772Z,10.94
2023-03-26T07:41:08.554Z,11.12
2023-03-26T07:43:59.672Z,10.02
2023-03-26T07:46:29.721Z,10.61
2023-03-26T07:48:58.429Z,9.70
2023-03-26T07:51:29.741Z,10.18
2023-03-26T07:53:58.047Z,11.05
2023-03-26T07:56:34.589Z,11.07
2023-03-26T07:59:16.658Z,11.13
2023-03-26T08:01:58.448Z,11.06
2023-03-26T08:04:52.781Z,11.17
2023-03-26T08:07:36.480Z,9.97
2023-03-26T08:10:16.188Z,9.68
2023-03-26T08:12:55.352Z,10.06
2023-03-26T08:15:30.880Z,10.41
2023-03-26T08:18:13.564Z,10.75
2023-03-26T08:20:47.750Z,11.19
2023-03-26T08:23:27.683Z,11.35
2023-03-26T08:26:04.000Z,11.49
2023-03-26T08:28:44.036Z,10.27
2023-03-26T08:31:15.578Z,11.19
2023-03-26T08:33:43.725Z,11.33
2023-03-26T08:36:11.343Z,11.14
2023-03-26T08:38:40.329Z,11.18
2023-03-26T08:41:50.937Z,11.49
2023-03-26T08:44:50.770Z,10.82
2023-03-26T08:47:45.025Z,11.06
2023-03-26T08:50:48.122Z,10.91
2023-03-26T08:53:45.098Z,10.88
2023-03-26T08:56:24.022Z,11.14
2023-03-26T08:59:37.528Z,10.99
2023-03-26T09:02:46.009Z,11.01
2023-03-26T09:05:47.454Z,11.17
2023-03-26T09:09:19.006Z,11.19
2023-03-26T09:12:14.822Z,10.98
2023-03-26T09:15:21.510Z,10.93
2023-03-26T09:18:19.302Z,10.87
2023-03-26T09:21:18.389Z,10.75
2023-03-26T09:24:29.892Z,10.43
2023-03-26T09:27:15.697Z,10.60
2023-03-26T09:30:20.143Z,10.60
2023-03-26T09:33:18.722Z,10.74
2023-03-26T09:35:58.623Z,10.74
2023-03-26T09:38:44.053Z,10.81
2023-03-26T09:41:22.054Z,10.87
2023-03-26T09:44:25.646Z,10.91
2023-03-26T09:47:18.516Z,11.16
2023-03-26T09:50:00.067Z,11.11
2023-03-26T09:52:57.335Z,10.91
2023-03-26T09:55:39.072Z,11.07
2023-03-26T09:58:41.724Z,10.65
2023-03-26T10:01:19.437Z,9.64
2023-03-26T10:04:04.903Z,9.51
2023-03-26T10:06:49.620Z,10.05
2023-03-26T10:09:41.332Z,10.37
2023-03-26T10:12:28.130Z,10.58
2023-03-26T10:15:13.278Z,10.44
2023-03-26T10:18:00.509Z,10.59
2023-03-26T10:20:42.804Z,9.73
2023-03-26T10:23:46.075Z,9.80
2023-03-26T10:26:38.062Z,9.66
2023-03-26T10:29:40.737Z,10.20
2023-03-26T10:32:25.577Z,10.00
2023-03-26T10:35:15.770Z,9.13
2023-03-26T10:38:00.969Z,9.27
2023-03-26T10:40:37.718Z,9.13
2023-03-26T10:43:27.935Z,9.45
2023-03-26T10:46:18.425Z,10.28
2023-03-26T10:49:16.908Z,10.70
2023-03-26T10:51:48.195Z,10.39
2023-03-26T10:54:29.153Z,10.53
2023-03-26T10:56:59.124Z,11.10
2023-03-26T10:59:27.228Z,10.82
2023-03-26T11:02:17.040Z,11.41
2023-03-26T11:04:55.767Z,11.27
2023-03-26T11:07:35.157Z,11.32
2023-03-26T11:10:10.185Z,10.87
2023-03-26T11:12:47.471Z,11.41
2023-03-26T11:15:25.392Z,11.24
2023-03-26T11:18:05.487Z,11.21
2023-03-26T11:20:43.618Z,11.06
2023-03-26T11:23:34.931Z,10.69
2023-03-26T11:26:12.456Z,10.07
2023-03-26T11:29:30.851Z,9.89
2023-03-26T11:32:05.314Z,9.57
2023-03-26T11:34:38.376Z,9.44
2023-03-26T11:37:17.421Z,9.26
2023-03-26T11:39:51.101Z,9.39
2023-03-26T11:42:23.625Z,9.45
2023-03-26T11:44:55.916Z,9.68
2023-03-26T11:47:33.330Z,9.55
2023-03-26T11:50:05.940Z,9.73
2023-03-26T11:52:35.546Z,9.90
2023-03-26T11:55:03.260Z,9.34
2023-03-26T11:57:36.067Z,9.61
2023-03-26T12:00:10.250Z,9.43
2023-03-26T12:02:40.302Z,9.74
2023-03-26T12:05:15.188Z,9.85
2023-03-26T12:07:49.814Z,9.84
2023-03-26T12:10:36.253Z,10.16
2023-03-26T12:13:27.878Z,10.08
2023-03-26T12:15:58.718Z,9.20
2023-03-26T12:18:28.125Z,9.49
2023-03-26T12:21:04.769Z,9.63
2023-03-26T12:23:41.443Z,9.94
2023-03-26T12:26:16.300Z,10.32
2023-03-26T12:28:46.314Z,10.45
2023-03-26T12:31:15.650Z,10.28
2023-03-26T12:33:44.878Z,9.62
2023-03-26T12:36:20.462Z,10.14
2023-03-26T12:39:17.147Z,10.73
2023-03-26T12:44:50.275Z,10.85
2023-03-26T12:44:56.211Z,10.95
2023-03-26T12:47:59.881Z,10.76
2023-03-26T12:50:14.386Z,10.84
2023-03-26T12:53:00.537Z,10.20
2023-03-26T12:55:42.296Z,10.15
2023-03-26T12:58:32.501Z,9.77
2023-03-26T13:01:10.013Z,9.58
2023-03-26T13:03:58.728Z,9.00
2023-03-26T13:06:58.866Z,7.76
2023-03-26T13:09:53.363Z,7.17
2023-03-26T13:12:37.867Z,6.96
2023-03-26T13:15:25.222Z,7.42
2023-03-26T13:18:11.608Z,7.56
2023-03-26T13:20:52.440Z,7.82
2023-03-26T13:23:34.037Z,8.61
2023-03-26T13:26:14.047Z,8.91
2023-03-26T13:28:55.769Z,9.15
2023-03-26T13:31:31.063Z,9.02
2023-03-26T13:34:10.530Z,8.94
2023-03-26T13:36:48.479Z,8.37
2023-03-26T13:39:29.568Z,7.97
2023-03-26T13:42:15.289Z,8.58
2023-03-26T13:45:04.878Z,8.87
2023-03-26T13:47:38.887Z,8.33
2023-03-26T13:50:19.194Z,8.15
2023-03-26T13:52:52.819Z,8.16
2023-03-26T13:55:28.526Z,8.14
2023-03-26T13:58:03.343Z,8.59
2023-03-26T14:00:49.883Z,8.66
2023-03-26T14:03:27.383Z,9.55
2023-03-26T14:06:00.443Z,10.15
2023-03-26T14:08:35.899Z,10.54
2023-03-26T14:11:11.175Z,10.56
2023-03-26T14:13:47.980Z,10.77
2023-03-26T14:16:23.551Z,9.81
2023-03-26T14:19:01.245Z,9.75
2023-03-26T14:21:53.257Z,9.63
2023-03-26T14:24:45.863Z,9.13
2023-03-26T14:27:37.482Z,9.19
2023-03-26T14:30:37.248Z,9.40
2023-03-26T14:33:36.905Z,9.23
2023-03-26T14:36:19.007Z,9.15
2023-03-26T14:39:12.755Z,9.36
2023-03-26T14:41:50.013Z,9.24
2023-03-26T14:44:48.502Z,9.17
2023-03-26T14:47:19.031Z,9.62
2023-03-26T14:50:24.163Z,9.42
2023-03-26T14:53:01.454Z,10.14
2023-03-26T14:56:05.351Z,10.72
2023-03-26T14:59:01.728Z,11.30
2023-03-26T15:02:07.741Z,13.45
2023-03-26T15:05:19.825Z,13.39
2023-03-26T15:08:41.342Z,13.16
2023-03-26T15:11:24.633Z,12.60
2023-03-26T15:14:09.442Z,12.29
2023-03-26T15:17:23.153Z,11.39
2023-03-26T15:20:32.744Z,10.53
2023-03-26T15:23:48.063Z,11.34
2023-03-26T15:26:50.558Z,12.49
2023-03-26T15:29:59.362Z,12.63
2023-03-26T15:33:05.265Z,14.01
2023-03-26T15:36:10.826Z,13.82
2023-03-26T15:39:16.927Z,13.48
2023-03-26T15:41:55.497Z,12.78
2023-03-26T15:44:53.113Z,12.39
2023-03-26T15:48:03.439Z,12.89
2023-03-26T15:50:59.972Z,13.71
2023-03-26T15:53:39.983Z,13.80
2023-03-26T15:56:45.842Z,13.73
2023-03-26T15:59:42.739Z,13.22
2023-03-26T16:02:27.151Z,13.04
2023-03-26T16:05:01.271Z,12.68
2023-03-26T16:07:43.369Z,12.39
2023-03-26T16:10:25.299Z,11.98
2023-03-26T16:13:35.747Z,11.90
2023-03-26T16:16:24.007Z,11.67
2023-03-26T16:19:36.279Z,11.63
2023-03-26T16:22:07.410Z,12.11
2023-03-26T16:24:39.373Z,12.20
2023-03-26T16:27:28.948Z,12.43
2023-03-26T16:30:29.039Z,12.09
2023-03-26T16:33:08.851Z,11.95
2023-03-26T16:36:04.687Z,11.68
2023-03-26T16:38:54.140Z,11.66
2023-03-26T16:41:27.309Z,11.63
2023-03-26T16:44:15.928Z,11.67
2023-03-26T16:47:00.700Z,11.71
2023-03-26T16:49:45.852Z,11.65
2023-03-26T16:52:35.291Z,11.16
2023-03-26T16:55:12.329Z,11.37
2023-03-26T16:57:52.435Z,11.75
2023-03-26T17:00:33.882Z,11.78
2023-03-26T17:03:18.749Z,11.80
2023-03-26T17:06:21.453Z,11.01
2023-03-26T17:09:01.078Z,10.64
2023-03-26T17:11:42.941Z,10.22
2023-03-26T17:14:30.080Z,10.14
2023-03-26T17:17:36.575Z,10.15
2023-03-26T17:20:19.270Z,10.36
2023-03-26T17:22:56.300Z,10.59
2023-03-26T17:25:36.021Z,10.54
2023-03-26T17:28:23.957Z,10.41
2023-03-26T17:31:02.119Z,10.67
2023-03-26T17:33:33.156Z,10.55
2023-03-26T17:36:30.238Z,10.62
2023-03-26T17:39:17.651Z,10.45
2023-03-26T17:42:01.076Z,10.49
2023-03-26T17:44:43.563Z,11.01
2023-03-26T17:47:31.800Z,11.07
2023-03-26T17:50:05.159Z,11.05
2023-03-26T17:52:54.068Z,11.23
2023-03-26T17:55:27.275Z,11.29
2023-03-26T17:58:00.229Z,11.36
2023-03-26T18:00:32.503Z,11.27
2023-03-26T18:03:07.586Z,11.69
2023-03-26T18:05:39.279Z,11.64
2023-03-26T18:08:42.931Z,11.46
2023-03-26T18:11:34.696Z,11.39
2023-03-26T18:14:37.346Z,11.02
2023-03-26T18:17:06.985Z,10.59
2023-03-26T18:19:47.984Z,10.04
2023-03-26T18:22:20.748Z,9.25
2023-03-26T18:24:50.211Z,8.80
2023-03-26T18:27:20.663Z,8.58
2023-03-26T18:30:01.698Z,8.51
2023-03-26T18:32:32.058Z,8.41
2023-03-26T18:35:02.314Z,8.31
2023-03-26T18:37:33.695Z,8.02
2023-03-26T18:40:08.031Z,8.09
2023-03-26T18:42:36.735Z,8.11
2023-03-26T18:45:14.394Z,8.11
2023-03-26T18:47:43.361Z,8.19
2023-03-26T18:50:18.590Z,8.24
2023-03-26T18:52:46.371Z,8.49
2023-03-26T18:55:15.050Z,8.67
2023-03-26T18:57:43.477Z,8.81
2023-03-26T19:00:22.969Z,8.83
2023-03-26T19:03:03.537Z,9.06
2023-03-26T19:05:34.449Z,9.23
2023-03-26T19:08:06.080Z,9.29
2023-03-26T19:10:34.625Z,9.52
2023-03-26T19:13:03.069Z,9.81
2023-03-26T19:15:35.330Z,9.91
2023-03-26T19:18:08.406Z,9.68
2023-03-26T19:20:41.879Z,8.98
2023-03-26T19:23:14.569Z,8.83
2023-03-26T19:25:45.505Z,8.75
2023-03-26T19:28:20.183Z,9.48
2023-03-26T19:30:55.059Z,9.64
2023-03-26T19:33:24.591Z,9.96
2023-03-26T19:36:00.024Z,10.13
2023-03-26T19:38:38.759Z,10.29
2023-03-26T19:41:06.545Z,9.69
2023-03-26T19:43:34.404Z,9.73
2023-03-26T19:46:03.559Z,9.88
2023-03-26T19:51:18.813Z,10.01
2023-03-26T19:51:25.211Z,9.78
2023-03-26T19:53:54.508Z,9.56
2023-03-26T19:56:23.068Z,9.58
2023-03-26T19:58:51.214Z,9.63
2023-03-26T20:01:24.992Z,9.09
2023-03-26T20:03:56.854Z,9.63
2023-03-26T20:06:34.482Z,9.43
2023-03-26T20:09:10.939Z,9.54
2023-03-26T20:11:38.942Z,9.90
2023-03-26T20:14:13.091Z,10.49
2023-03-26T20:16:44.547Z,10.53
2023-03-26T20:19:13.480Z,9.98
2023-03-26T20:21:41.885Z,9.82
2023-03-26T20:24:12.585Z,9.82
2023-03-26T20:26:40.598Z,10.63
2023-03-26T20:29:08.800Z,9.93
2023-03-26T20:31:36.469Z,9.16
2023-03-26T20:34:14.858Z,8.67
2023-03-26T20:36:42.752Z,8.86
2023-03-26T20:39:10.372Z,8.31
2023-03-26T20:41:46.080Z,8.42
2023-03-26T20:44:16.913Z,8.40
2023-03-26T20:46:47.865Z,8.47
2023-03-26T20:49:17.526Z,9.42
2023-03-26T20:51:46.008Z,9.72
2023-03-26T20:54:16.445Z,9.14
2023-03-26T20:56:44.634Z,8.84
2023-03-26T20:59:18.124Z,8.57
2023-03-26T21:01:45.826Z,8.46
2023-03-26T21:04:14.142Z,8.33
2023-03-26T21:06:44.596Z,8.27
2023-03-26T21:09:14.526Z,8.22
2023-03-26T21:11:54.207Z,8.22
2023-03-26T21:14:27.813Z,8.33
2023-03-26T21:16:56.106Z,8.43
2023-03-26T21:19:24.442Z,8.43
2023-03-26T21:22:03.262Z,8.45
2023-03-26T21:24:47.813Z,8.35
2023-03-26T21:27:24.675Z,8.35
2023-03-26T21:29:53.345Z,8.43
2023-03-26T21:32:22.254Z,8.53
2023-03-26T21:34:58.724Z,9.50
2023-03-26T21:37:31.805Z,9.56
2023-03-26T21:40:00.049Z,9.54
2023-03-26T21:42:28.290Z,10.05
2023-03-26T21:44:56.380Z,10.23
2023-03-26T21:47:24.559Z,10.26
2023-03-26T21:49:52.671Z,10.45
2023-03-26T21:52:20.860Z,10.60
2023-03-26T21:54:50.811Z,10.12
2023-03-26T21:57:39.006Z,10.23
2023-03-26T22:00:09.062Z,9.84
2023-03-26T22:02:51.292Z,10.00
2023-03-26T22:05:23.356Z,9.69
2023-03-26T22:07:55.963Z,9.80
2023-03-26T22:10:24.897Z,10.14
2023-03-26T22:12:53.165Z,9.86
2023-03-26T22:15:22.501Z,9.94
2023-03-26T22:17:50.300Z,9.86
2023-03-26T22:20:18.141Z,9.94
2023-03-26T22:22:45.815Z,9.89
2023-03-26T22:25:13.454Z,10.11
2023-03-26T22:27:44.163Z,10.12
2023-03-26T22:30:13.372Z,9.95
2023-03-26T22:32:41.684Z,10.02
2023-03-26T22:35:09.816Z,9.90
2023-03-26T22:37:37.600Z,10.13
2023-03-26T22:40:06.720Z,9.99
2023-03-26T22:42:34.465Z,10.25
2023-03-26T22:45:06.781Z,10.25
2023-03-26T22:47:34.617Z,10.55
2023-03-26T22:50:04.244Z,9.95
2023-03-26T22:52:31.841Z,10.04
2023-03-26T22:54:59.541Z,9.12
2023-03-26T22:57:27.427Z,8.73
2023-03-26T22:59:55.013Z,8.88
2023-03-26T23:02:25.504Z,9.14
2023-03-26T23:04:53.272Z,9.30
2023-03-26T23:07:21.390Z,8.88
2023-03-26T23:09:50.154Z,9.16
2023-03-26T23:12:17.631Z,9.28
2023-03-26T23:14:45.195Z,9.08
2023-03-26T23:17:12.699Z,8.52
2023-03-26T23:19:43.165Z,8.54
2023-03-26T23:22:10.792Z,9.00
2023-03-26T23:24:38.357Z,9.47
2023-03-26T23:27:06.045Z,9.13
2023-03-26T23:29:33.643Z,9.45
2023-03-26T23:32:01.193Z,9.77
2023-03-26T23:34:29.013Z,9.10
2023-03-26T23:36:58.078Z,8.50
2023-03-26T23:39:25.629Z,8.10
2023-03-26T23:41:53.218Z,8.01
2023-03-26T23:44:21.023Z,7.88
2023-03-26T23:46:49.201Z,7.77
2023-03-26T23:49:16.737Z,7.59
2023-03-26T23:51:44.383Z,7.59
2023-03-26T23:54:13.321Z,7.57
2023-03-26T23:56:40.989Z,8.03
2023-03-26T23:59:08.598Z,8.94
